Accueil
METAR-TAF:

METAR-TAF

Aéroports :

Aéroport de Lyon-Saint-Exupéry

Lyon / Saint Exupéry, France

latitude: 45-44N, longitude: 005-05E, altitude: 248 m

Observation

Le bulletin a été fait il y a 42 minutes, à 00:30 UTC
Vent 4 kt de nord-est, variant entre nord/nord-est et est
Température 13°C
Humidité 47%
Pression 1027 hPa
Visibilité 10 km ou plus
pas de nuages en-dessous de 1500 mètres et pas de cumulonimbus.

METAR: LFLL 080030Z AUTO 05004KT 020V080 CAVOK 13/02 Q1027 NOSIG

Heure: 03:12 (01:12 UTC)

Prévision

Le bulletin a été fait il y a 2 heures et 12 minutes, à 23:00 UTC
Prévision valable du 08 à 00 UTC au 09 à 06 UTC
Vent 5 kt de sud
Visibilité 10 km ou plus
pas de nuages en-dessous de 1500 mètres et pas de cumulonimbus.

TAF: LFLL 072300Z 0800/0906 18005KT CAVOK

Observations et prévisions météorologiques de plus de 4000 aéroports (messages METAR et TAF).

Les stations disponibles sont représentées par des disques jaunes et rouges sur la carte.

Passer la souris dessus pour voir le nom de la station.

Cliquer dessus pour voir les observations et prévisions météorologiques.

Pour changer de carte: cliquez sur les boutons verts avec une croix noire pour zoomer, sur le bouton vert avec un tiret pour effectuer un zoom arrière, ou sur les flèches vertes pour les cartes adjacentes.


METAR-TAF: